Latest Weather Observations for Lameroo AWS

IDS60801

Issued at 5:31 pm CST Friday 29 May 2015 (issued every 30 minutes, with the page automatically refreshed every 10 minutes)

About weather observations | Map of weather stations | Latest weather observations for SA | Other Formats
Station Details ID: 025562 Name: AUSTIN PLAINS Lat: -35.38 Lon: 140.54 Height: 110.08 m
Data from the previous 72 hours. | See also: Recent months at Lameroo AWS
Date/Time
CST
Temp
°C
App
Temp
°C
Dew
Point
Rel
Hum
%
Delta-T
°C
Wind Press
QNH
hPa
Press
MSL
hPa
Rain
since 9 am
mm
Dir
 
Spd
km/h
Gust
km/h
Spd
kts
Gust
kts
29/05:30pm 11.6 8.9 5.7 67 2.7 WNW 9 13 5 7 1023.0 1023.1 0.0
29/05:00pm 12.1 9.0 5.7 65 3.0 W 11 15 6 8 1022.8 1022.9 0.0
29/04:30pm 13.9 9.7 5.8 58 3.8 W 17 19 9 10 1022.7 1022.8 0.0
29/04:00pm 15.0 10.1 5.0 51 4.7 W 20 32 11 17 1022.6 1022.7 0.0
29/03:30pm 15.9 9.7 4.3 46 5.4 WNW 26 33 14 18 1022.7 1022.8 0.0
29/03:00pm 17.1 12.2 5.1 45 5.7 WNW 20 26 11 14 1022.6 1022.7 0.0
29/02:30pm 16.1 11.3 4.5 46 5.4 W 19 32 10 17 1022.6 1022.7 0.0
29/02:00pm 15.0 10.4 5.8 54 4.4 W 19 26 10 14 1022.8 1022.9 0.0
29/01:30pm 15.3 11.6 6.3 55 4.4 WSW 15 19 8 10 1022.8 1022.9 0.0
29/01:00pm 14.2 10.9 6.3 59 3.8 WSW 13 17 7 9 1023.0 1023.1 0.0
29/12:30pm 14.4 11.5 6.5 59 3.8 SW 11 15 6 8 1023.1 1023.2 0.0
29/12:00pm 13.9 10.4 7.0 63 3.4 W 15 20 8 11 1023.4 1023.4 0.0
29/11:30am 14.2 11.4 8.4 68 2.9 W 13 20 7 11 1023.9 1023.9 0.0
29/11:00am 13.4 10.2 8.5 72 2.5 W 15 19 8 10 1024.4 1024.4 0.0
29/10:30am 12.8 9.6 8.5 75 2.1 WSW 15 20 8 11 1024.5 1024.5 0.0
29/10:00am 12.1 8.8 8.2 77 1.9 W 15 20 8 11 1024.3 1024.3 0.0
29/09:30am 10.7 8.1 7.8 82 1.4 W 11 15 6 8 1024.0 1024.0 0.0
29/09:00am 9.8 7.7 8.2 90 0.8 W 9 13 5 7 1023.9 1023.9 0.2
29/08:30am 9.4 7.2 9.4 100 0.0 W 11 13 6 7 1023.7 1023.7 0.2
29/08:00am 7.5 4.8 7.5 100 0.0 W 11 13 6 7 1023.6 1023.6 0.0
29/07:30am 5.8 3.7 5.8 100 0.0 W 6 7 3 4 1023.6 1023.6 0.0
29/07:00am 5.2 3.7 5.2 100 0.0 WNW 2 7 1 4 1023.1 1023.2 0.0
29/06:30am 6.8 4.4 6.8 100 0.0 WNW 9 11 5 6 1022.7 1022.8 0.0
29/06:00am 7.4 5.1 7.4 100 0.0 WNW 9 11 5 6 1022.2 1022.3 0.0
29/05:30am 7.9 4.9 7.9 100 0.0 W 13 15 7 8 1022.0 1022.1 0.0
29/05:00am 7.9 4.9 7.9 100 0.0 W 13 15 7 8 1021.8 1021.9 0.0
29/04:30am 8.1 5.6 8.1 100 0.0 W 11 13 6 7 1021.7 1021.7 0.0
29/04:00am 8.8 6.4 8.8 100 0.0 W 11 13 6 7 1021.1 1021.1 0.0
29/03:30am 9.7 7.2 9.7 100 0.0 W 13 15 7 8 1021.2 1021.2 0.0
29/03:00am 10.3 8.3 10.3 100 0.0 WNW 11 11 6 6 1021.3 1021.3 0.0
29/02:30am 10.4 8.9 10.4 100 0.0 NW 9 11 5 6 1021.1 1021.1 0.0
29/02:00am 10.7 8.5 10.7 100 0.0 WNW 13 17 7 9 1021.3 1021.3 0.0
29/01:30am 10.4 9.2 10.4 100 0.0 WNW 7 9 4 5 1021.0 1021.0 0.0
29/01:00am 10.6 8.7 10.6 100 0.0 WNW 11 15 6 8 1021.0 1021.0 0.0
29/12:30am 10.7 8.5 10.7 100 0.0 W 13 17 7 9 1020.8 1020.8 0.0
29/12:00am 10.9 8.7 10.9 100 0.0 W 13 17 7 9 1020.8 1020.8 0.0
 
Date/Time
CST
Temp
°C
App
Temp
°C
Dew
Point
Rel
Hum
%
Delta-T
°C
Wind Press
QNH
hPa
Press
MSL
hPa
Rain
since 9 am
mm
Dir
 
Spd
km/h
Gust
km/h
Spd
kts
Gust
kts
28/11:30pm 10.6 9.5 10.6 100 0.0 WSW 7 9 4 5 1020.7 1020.7 0.0
28/11:00pm 11.3 9.6 11.3 100 0.0 W 11 13 6 7 1020.8 1020.8 0.0
28/10:30pm 11.7 9.0 11.7 100 0.0 WSW 17 22 9 12 1020.6 1020.6 0.0
28/10:00pm 11.8 9.4 10.2 90 0.8 W 13 17 7 9 1020.4 1020.4 0.0
28/09:30pm 12.1 9.4 10.3 89 0.9 W 15 19 8 10 1020.0 1020.0 0.0
28/09:00pm 12.2 9.6 10.8 91 0.7 W 15 20 8 11 1020.0 1020.0 0.0
28/08:30pm 12.0 9.4 10.7 92 0.7 WSW 15 19 8 10 1019.9 1019.9 0.0
28/08:00pm 11.9 8.9 10.5 91 0.7 WSW 17 20 9 11 1019.5 1019.5 0.0
28/07:30pm 11.7 10.0 9.9 89 0.9 WSW 9 13 5 7 1019.4 1019.4 0.0
28/07:00pm 12.1 8.9 9.8 86 1.2 WSW 17 20 9 11 1018.9 1018.9 0.0
28/06:30pm 12.5 8.7 9.9 84 1.3 WSW 20 26 11 14 1019.0 1019.0 0.0
28/06:00pm 13.3 8.4 9.9 80 1.8 WSW 26 33 14 18 1018.4 1018.4 0.0
28/05:51pm 13.7 8.3 9.6 76 2.1 WSW 28 41 15 22 1018.2 1018.2 0.0
28/05:30pm 14.3 10.4 8.7 69 2.8 W 19 20 10 11 1017.9 1017.9 0.0
28/05:00pm 15.4 11.5 8.6 64 3.5 W 19 22 10 12 1017.4 1017.4 0.0
28/04:30pm 16.9 11.9 8.1 56 4.5 W 24 33 13 18 1017.1 1017.1 0.0
28/04:00pm 18.2 11.9 7.3 49 5.5 W 30 37 16 20 1016.9 1016.9 0.0
28/03:30pm 18.6 11.3 7.1 47 5.8 W 35 44 19 24 1016.7 1016.7 0.0
28/03:00pm 18.7 11.9 7.5 48 5.7 W 33 41 18 22 1016.7 1016.7 0.0
28/02:30pm 19.7 11.7 7.4 45 6.3 W 39 48 21 26 1016.6 1016.6 0.0
28/02:00pm 20.1 12.5 5.7 39 7.2 W 35 48 19 26 1016.6 1016.6 0.0
28/01:30pm 20.4 12.6 4.8 36 7.6 W 35 46 19 25 1016.5 1016.5 0.0
28/01:00pm 20.7 11.8 5.1 36 7.7 WNW 41 50 22 27 1016.6 1016.6 0.0
28/12:30pm 20.6 13.5 6.5 40 7.1 WNW 33 41 18 22 1016.9 1016.9 0.0
28/12:00pm 18.9 12.4 8.0 49 5.6 WNW 32 43 17 23 1017.4 1017.4 0.0
28/11:30am 18.0 12.6 8.0 52 5.1 WNW 26 33 14 18 1017.8 1017.8 0.0
28/11:00am 17.6 12.9 9.2 58 4.4 WNW 24 32 13 17 1018.4 1018.4 0.0
28/10:30am 17.2 13.5 10.1 63 3.8 WNW 20 26 11 14 1018.7 1018.7 0.0
28/10:00am 16.2 12.3 9.6 65 3.5 WNW 20 26 11 14 1018.7 1018.7 0.0
28/09:30am 16.0 12.1 9.4 65 3.4 NW 20 26 11 14 1019.0 1019.0 0.0
28/09:00am 13.8 11.2 9.5 75 2.2 NW 13 17 7 9 1018.9 1018.9 0.0
28/08:30am 11.6 9.4 9.2 85 1.2 NW 11 13 6 7 1018.7 1018.7 0.0
28/08:00am 8.5 5.7 7.0 90 0.7 NNW 11 15 6 8 1018.8 1018.8 0.0
28/07:30am 7.1 4.4 5.6 90 0.7 NW 9 9 5 5 1018.6 1018.6 0.0
28/07:00am 7.7 5.4 5.8 88 0.9 NW 7 9 4 5 1018.3 1018.3 0.0
28/06:30am 8.1 6.0 5.9 86 1.0 NW 6 7 3 4 1018.2 1018.2 0.0
28/06:00am 8.5 6.0 6.5 87 0.9 N 9 9 5 5 1017.7 1017.7 0.0
28/05:30am 8.0 5.0 5.8 86 1.0 N 11 13 6 7 1017.7 1017.7 0.0
28/05:00am 8.7 6.6 6.7 87 0.9 N 7 9 4 5 1017.6 1017.6 0.0
28/04:30am 9.0 6.4 6.3 83 1.2 N 9 11 5 6 1017.5 1017.5 0.0
28/04:00am 9.2 6.7 6.6 84 1.2 N 9 11 5 6 1017.5 1017.5 0.0
28/03:30am 9.3 7.3 6.9 85 1.1 N 7 7 4 4 1017.4 1017.4 0.0
28/03:00am 9.0 6.1 6.6 85 1.1 N 11 11 6 6 1017.8 1017.8 0.0
28/02:30am 9.1 5.9 6.7 85 1.1 N 13 13 7 7 1018.2 1018.2 0.0
28/02:00am 8.7 5.8 6.7 87 0.9 N 11 13 6 7 1018.3 1018.3 0.0
28/01:30am 8.1 5.1 5.9 86 1.0 N 11 13 6 7 1018.2 1018.2 0.0
28/01:00am 8.8 6.6 6.3 84 1.2 N 7 7 4 4 1018.0 1018.0 0.0
28/12:30am 8.8 5.9 6.3 84 1.2 N 11 11 6 6 1018.5 1018.5 0.0
28/12:00am 9.2 6.3 6.3 82 1.3 N 11 13 6 7 1018.6 1018.6 0.0
 
Date/Time
CST
Temp
°C
App
Temp
°C
Dew
Point
Rel
Hum
%
Delta-T
°C
Wind Press
QNH
hPa
Press
MSL
hPa
Rain
since 9 am
mm
Dir
 
Spd
km/h
Gust
km/h
Spd
kts
Gust
kts
27/11:30pm 9.0 6.4 6.1 82 1.3 NNE 9 11 5 6 1018.6 1018.6 0.0
27/11:00pm 9.9 7.4 6.6 80 1.6 N 9 13 5 7 1018.9 1018.9 0.0
27/10:30pm 9.8 7.9 7.4 85 1.1 NNE 7 9 4 5 1018.9 1018.9 0.0
27/10:00pm 11.1 9.5 7.8 80 1.6 N 6 7 3 4 1019.2 1019.2 0.0
27/09:30pm 10.7 9.0 7.6 81 1.5 NE 6 6 3 3 1019.2 1019.2 0.0
27/09:00pm 12.2 11.2 8.9 80 1.7 NNE 4 6 2 3 1019.2 1019.2 0.0
27/08:30pm 10.5 8.7 7.0 79 1.7 NNE 6 6 3 3 1019.3 1019.3 0.0
27/08:00pm 10.7 9.1 6.5 75 2.0 W 4 6 2 3 1019.2 1019.2 0.0
27/07:30pm 13.8 12.4 9.5 75 2.2 WSW 7 11 4 6 1019.2 1019.2 0.0
27/07:00pm 13.8 12.3 9.0 73 2.4 WSW 7 9 4 5 1019.2 1019.2 0.0
27/06:30pm 13.9 11.5 8.5 70 2.7 WSW 11 13 6 7 1019.0 1019.0 0.0
27/06:00pm 14.2 11.2 7.9 66 3.1 W 13 13 7 7 1018.8 1018.8 0.0
27/05:30pm 15.6 12.8 7.1 57 4.2 W 11 11 6 6 1018.5 1018.5 0.0
27/05:00pm 16.3 14.0 7.3 55 4.5 W 9 11 5 6 1018.4 1018.4 0.0
27/04:30pm 18.2 15.3 6.4 46 5.9 WNW 11 13 6 7 1018.3 1018.3 0.0
27/04:00pm 20.8 17.9 4.8 35 7.9 WNW 9 15 5 8 1018.2 1018.2 0.0
27/03:30pm 20.7 16.7 5.1 36 7.7 WNW 15 20 8 11 1018.3 1018.3 0.0
27/03:00pm 21.4 17.6 5.7 36 7.9 WNW 15 20 8 11 1018.3 1018.3 0.0
27/02:30pm 21.0 17.5 5.4 36 7.7 WNW 13 20 7 11 1018.3 1018.3 0.0
27/02:00pm 20.9 16.5 4.9 35 7.9 WNW 17 22 9 12 1018.2 1018.2 0.0
27/01:30pm 21.1 17.9 7.0 40 7.2 NW 13 22 7 12 1018.5 1018.5 0.0
27/01:00pm 20.1 16.0 7.8 45 6.4 WNW 19 24 10 13 1018.8 1018.8 0.0
27/12:30pm 19.6 15.3 7.7 46 6.1 WNW 20 28 11 15 1019.2 1019.2 0.0
27/12:00pm 19.6 15.6 8.9 50 5.6 WNW 20 30 11 16 1019.6 1019.6 0.0
27/11:30am 19.2 14.9 9.4 53 5.2 NW 22 28 12 15 1020.0 1020.0 0.0
27/11:00am 19.0 15.1 9.5 54 5.0 NW 20 26 11 14 1020.4 1020.4 0.0
27/10:30am 18.3 14.5 9.9 58 4.5 NW 20 28 11 15 1020.6 1020.6 0.0
27/10:00am 17.3 14.3 10.7 65 3.6 NW 17 24 9 13 1020.8 1020.8 0.0
27/09:30am 15.8 13.3 11.2 74 2.5 NNW 15 17 8 9 1020.9 1020.9 0.0
27/09:00am 13.9 10.9 10.7 81 1.7 NW 17 20 9 11 1020.9 1020.9 0.4
27/08:30am 12.4 9.3 10.3 87 1.1 NNW 17 20 9 11 1020.8 1020.8 0.4
27/08:00am 10.8 7.9 9.6 92 0.6 NNW 15 17 8 9 1020.6 1020.6 0.4
27/07:30am 9.1 6.1 9.1 100 0.0 N 15 17 8 9 1020.4 1020.4 0.4
27/07:00am 9.2 6.9 9.1 99 0.0 N 11 11 6 6 1020.3 1020.3 0.4
27/06:30am 9.3 7.6 8.4 94 0.4 NNW 7 9 4 5 1020.2 1020.2 0.4
27/06:00am 9.7 7.4 8.9 95 0.4 NNW 11 13 6 7 1020.0 1020.0 0.4
27/05:30am 9.8 6.6 8.6 92 0.6 N 15 17 8 9 1019.8 1019.8 0.4
27/05:00am 10.1 7.3 8.5 90 0.8 N 13 15 7 8 1019.6 1019.6 0.4
27/04:30am 11.0 9.1 9.1 88 0.9 NNW 9 11 5 6 1019.5 1019.5 0.4
27/04:00am 12.0 10.3 9.9 87 1.1 NW 9 9 5 5 1019.5 1019.5 0.4
27/03:30am 12.4 11.1 10.1 86 1.2 WNW 7 9 4 5 1019.6 1019.6 0.4
27/03:00am 12.1 10.4 9.8 86 1.2 NW 9 11 5 6 1019.9 1019.9 0.4
27/02:30am 12.4 9.9 9.6 83 1.4 NW 13 17 7 9 1020.3 1020.3 0.4
27/02:00am 12.3 9.8 9.7 84 1.3 NNW 13 15 7 8 1020.5 1020.5 0.4
27/01:30am 12.0 10.1 9.2 83 1.4 N 9 11 5 6 1020.5 1020.5 0.4
27/01:00am 12.8 11.6 9.6 81 1.6 N 6 7 3 4 1020.4 1020.4 0.4
27/12:30am 13.2 12.4 9.8 80 1.7 N 4 6 2 3 1020.6 1020.6 0.4
27/12:00am 13.3 12.6 9.9 80 1.8 N 4 4 2 2 1021.0 1021.0 0.4
 
Date/Time
CST
Temp
°C
App
Temp
°C
Dew
Point
Rel
Hum
%
Delta-T
°C
Wind Press
QNH
hPa
Press
MSL
hPa
Rain
since 9 am
mm
Dir
 
Spd
km/h
Gust
km/h
Spd
kts
Gust
kts
26/11:30pm 13.1 12.8 10.1 82 1.5 NNE 2 4 1 2 1021.1 1021.1 0.4
26/11:00pm 13.0 11.8 10.2 83 1.5 N 7 9 4 5 1021.3 1021.3 0.4
26/10:30pm 13.8 11.3 9.6 76 2.2 NNE 13 13 7 7 1021.5 1021.5 0.0
26/10:00pm 13.6 11.0 9.3 75 2.2 NNE 13 15 7 8 1021.8 1021.9 0.0
26/09:30pm 14.0 11.1 9.6 75 2.3 NE 15 17 8 9 1021.7 1021.7 0.0
26/09:00pm 14.2 11.7 9.8 75 2.3 NE 13 15 7 8 1021.9 1022.0 0.0
26/08:30pm 14.6 12.1 9.6 72 2.6 NE 13 15 7 8 1022.1 1022.2 0.0
26/08:00pm 15.0 12.5 9.6 70 2.8 NNE 13 15 7 8 1022.0 1022.1 0.0
26/07:30pm 14.4 11.9 9.6 73 2.5 NNE 13 15 7 8 1021.9 1022.0 0.0
26/07:00pm 14.3 11.3 9.3 72 2.6 NE 15 15 8 8 1021.7 1021.7 0.0
26/06:30pm 15.2 13.0 9.3 68 3.0 NNE 11 13 6 7 1021.9 1022.0 0.0
26/06:00pm 15.2 12.5 8.9 66 3.2 NNE 13 13 7 7 1021.9 1022.0 0.0

Other Formats:

Comma delimited format used in spreadsheet applications
http://www.bom.gov.au/fwo/IDS60801/IDS60801.94690.axf

JavaScript Object Notation format (JSON) in row-major order
http://www.bom.gov.au/fwo/IDS60801/IDS60801.94690.json